sensor_id;sensor_type;location;lat;lon;timestamp;P1;durP1;ratioP1;P2;durP2;ratioP2
69081;SDS011;56184;51.986;5.760;2022-08-19T00:00:23;7.20;;;3.10;;
69081;SDS011;56184;51.986;5.760;2022-08-19T00:02:51;4.43;;;3.40;;
69081;SDS011;56184;51.986;5.760;2022-08-19T00:05:17;3.65;;;3.25;;
69081;SDS011;56184;51.986;5.760;2022-08-19T00:07:44;5.22;;;3.78;;
69081;SDS011;56184;51.986;5.760;2022-08-19T00:10:11;6.45;;;3.55;;
69081;SDS011;56184;51.986;5.760;2022-08-19T00:12:38;5.30;;;3.40;;
69081;SDS011;56184;51.986;5.760;2022-08-19T00:15:05;3.53;;;3.20;;
69081;SDS011;56184;51.986;5.760;2022-08-19T00:17:35;6.80;;;3.88;;
69081;SDS011;56184;51.986;5.760;2022-08-19T00:20:01;6.38;;;3.80;;
69081;SDS011;56184;51.986;5.760;2022-08-19T00:22:27;4.50;;;3.88;;
69081;SDS011;56184;51.986;5.760;2022-08-19T00:24:53;4.95;;;3.58;;
69081;SDS011;56184;51.986;5.760;2022-08-19T00:27:19;6.00;;;3.55;;
69081;SDS011;56184;51.986;5.760;2022-08-19T00:29:46;4.07;;;3.55;;
69081;SDS011;56184;51.986;5.760;2022-08-19T00:32:11;3.60;;;3.30;;
69081;SDS011;56184;51.986;5.760;2022-08-19T00:34:38;3.60;;;3.20;;
69081;SDS011;56184;51.986;5.760;2022-08-19T00:37:04;3.63;;;3.20;;
69081;SDS011;56184;51.986;5.760;2022-08-19T00:39:33;4.53;;;3.40;;
69081;SDS011;56184;51.986;5.760;2022-08-19T00:41:58;4.43;;;3.17;;
69081;SDS011;56184;51.986;5.760;2022-08-19T00:44:26;3.45;;;3.10;;
69081;SDS011;56184;51.986;5.760;2022-08-19T00:46:53;3.65;;;3.35;;
69081;SDS011;56184;51.986;5.760;2022-08-19T00:51:51;4.15;;;3.60;;
69081;SDS011;56184;51.986;5.760;2022-08-19T00:54:22;3.78;;;3.47;;
69081;SDS011;56184;51.986;5.760;2022-08-19T00:56:48;6.20;;;3.80;;
69081;SDS011;56184;51.986;5.760;2022-08-19T00:59:15;4.10;;;3.72;;
69081;SDS011;56184;51.986;5.760;2022-08-19T01:01:43;4.40;;;4.00;;
69081;SDS011;56184;51.986;5.760;2022-08-19T01:04:11;3.92;;;3.53;;
69081;SDS011;56184;51.986;5.760;2022-08-19T01:06:38;3.78;;;3.40;;
69081;SDS011;56184;51.986;5.760;2022-08-19T01:09:06;5.22;;;3.67;;
69081;SDS011;56184;51.986;5.760;2022-08-19T01:11:34;3.80;;;3.50;;
69081;SDS011;56184;51.986;5.760;2022-08-19T01:14:03;4.25;;;3.85;;
69081;SDS011;56184;51.986;5.760;2022-08-19T01:16:29;4.90;;;3.50;;
69081;SDS011;56184;51.986;5.760;2022-08-19T01:18:57;3.90;;;3.50;;
69081;SDS011;56184;51.986;5.760;2022-08-19T01:21:25;7.03;;;3.65;;
69081;SDS011;56184;51.986;5.760;2022-08-19T01:23:52;4.20;;;3.80;;
69081;SDS011;56184;51.986;5.760;2022-08-19T01:26:19;7.43;;;4.80;;
69081;SDS011;56184;51.986;5.760;2022-08-19T01:28:48;5.28;;;3.70;;
69081;SDS011;56184;51.986;5.760;2022-08-19T01:31:17;4.80;;;4.40;;
69081;SDS011;56184;51.986;5.760;2022-08-19T01:33:46;6.22;;;5.03;;
69081;SDS011;56184;51.986;5.760;2022-08-19T01:36:14;7.15;;;4.32;;
69081;SDS011;56184;51.986;5.760;2022-08-19T01:38:46;6.90;;;5.65;;
69081;SDS011;56184;51.986;5.760;2022-08-19T01:41:13;6.78;;;6.15;;
69081;SDS011;56184;51.986;5.760;2022-08-19T01:43:39;5.90;;;5.40;;
69081;SDS011;56184;51.986;5.760;2022-08-19T01:46:05;5.38;;;4.97;;
69081;SDS011;56184;51.986;5.760;2022-08-19T01:48:35;6.80;;;6.10;;
69081;SDS011;56184;51.986;5.760;2022-08-19T01:51:08;6.25;;;5.65;;
69081;SDS011;56184;51.986;5.760;2022-08-19T01:53:35;6.63;;;6.03;;
69081;SDS011;56184;51.986;5.760;2022-08-19T01:56:02;6.65;;;5.97;;
69081;SDS011;56184;51.986;5.760;2022-08-19T01:58:34;7.35;;;6.65;;
69081;SDS011;56184;51.986;5.760;2022-08-19T02:01:06;8.13;;;5.95;;
69081;SDS011;56184;51.986;5.760;2022-08-19T02:03:32;7.05;;;6.35;;
69081;SDS011;56184;51.986;5.760;2022-08-19T02:05:59;6.93;;;6.22;;
69081;SDS011;56184;51.986;5.760;2022-08-19T02:08:28;7.22;;;6.53;;
69081;SDS011;56184;51.986;5.760;2022-08-19T02:10:54;6.47;;;5.88;;
69081;SDS011;56184;51.986;5.760;2022-08-19T02:13:20;6.30;;;5.70;;
69081;SDS011;56184;51.986;5.760;2022-08-19T02:15:48;6.18;;;5.68;;
69081;SDS011;56184;51.986;5.760;2022-08-19T02:18:14;5.85;;;5.40;;
69081;SDS011;56184;51.986;5.760;2022-08-19T02:20:40;6.07;;;5.50;;
69081;SDS011;56184;51.986;5.760;2022-08-19T02:23:07;5.70;;;5.20;;
69081;SDS011;56184;51.986;5.760;2022-08-19T02:25:34;6.93;;;5.13;;
69081;SDS011;56184;51.986;5.760;2022-08-19T02:27:59;7.32;;;5.88;;
69081;SDS011;56184;51.986;5.760;2022-08-19T02:30:25;6.18;;;5.68;;
69081;SDS011;56184;51.986;5.760;2022-08-19T02:32:51;6.70;;;5.50;;
69081;SDS011;56184;51.986;5.760;2022-08-19T02:35:17;6.45;;;5.43;;
69081;SDS011;56184;51.986;5.760;2022-08-19T02:37:43;6.43;;;5.53;;
69081;SDS011;56184;51.986;5.760;2022-08-19T02:40:28;6.20;;;5.60;;
69081;SDS011;56184;51.986;5.760;2022-08-19T02:42:58;6.25;;;5.65;;
69081;SDS011;56184;51.986;5.760;2022-08-19T02:45:24;5.38;;;4.93;;
69081;SDS011;56184;51.986;5.760;2022-08-19T02:47:49;5.53;;;5.03;;
69081;SDS011;56184;51.986;5.760;2022-08-19T02:50:15;5.50;;;5.00;;
69081;SDS011;56184;51.986;5.760;2022-08-19T02:52:41;7.03;;;5.32;;
69081;SDS011;56184;51.986;5.760;2022-08-19T02:55:06;5.53;;;5.03;;
69081;SDS011;56184;51.986;5.760;2022-08-19T02:57:32;5.70;;;5.20;;
69081;SDS011;56184;51.986;5.760;2022-08-19T02:59:59;5.88;;;5.32;;
69081;SDS011;56184;51.986;5.760;2022-08-19T03:02:24;6.13;;;5.63;;
69081;SDS011;56184;51.986;5.760;2022-08-19T03:04:50;6.10;;;5.50;;
69081;SDS011;56184;51.986;5.760;2022-08-19T03:07:16;6.15;;;5.57;;
69081;SDS011;56184;51.986;5.760;2022-08-19T03:09:43;7.68;;;5.25;;
69081;SDS011;56184;51.986;5.760;2022-08-19T03:12:09;6.55;;;5.65;;
69081;SDS011;56184;51.986;5.760;2022-08-19T03:14:35;6.85;;;5.47;;
69081;SDS011;56184;51.986;5.760;2022-08-19T03:17:02;7.47;;;5.60;;
69081;SDS011;56184;51.986;5.760;2022-08-19T03:19:29;5.90;;;5.40;;
69081;SDS011;56184;51.986;5.760;2022-08-19T03:21:56;5.55;;;5.05;;
69081;SDS011;56184;51.986;5.760;2022-08-19T03:24:22;5.03;;;4.63;;
69081;SDS011;56184;51.986;5.760;2022-08-19T03:26:49;6.55;;;5.00;;
69081;SDS011;56184;51.986;5.760;2022-08-19T03:29:17;5.22;;;4.70;;
69081;SDS011;56184;51.986;5.760;2022-08-19T03:31:44;4.80;;;4.40;;
69081;SDS011;56184;51.986;5.760;2022-08-19T03:34:16;5.47;;;4.93;;
69081;SDS011;56184;51.986;5.760;2022-08-19T03:36:47;5.47;;;4.97;;
69081;SDS011;56184;51.986;5.760;2022-08-19T03:39:13;5.38;;;4.88;;
69081;SDS011;56184;51.986;5.760;2022-08-19T03:41:40;5.38;;;4.88;;
69081;SDS011;56184;51.986;5.760;2022-08-19T03:44:07;5.70;;;4.95;;
69081;SDS011;56184;51.986;5.760;2022-08-19T03:46:33;5.40;;;4.90;;
69081;SDS011;56184;51.986;5.760;2022-08-19T03:49:00;5.50;;;5.00;;
69081;SDS011;56184;51.986;5.760;2022-08-19T03:51:33;5.78;;;5.22;;
69081;SDS011;56184;51.986;5.760;2022-08-19T03:54:03;5.63;;;5.13;;
69081;SDS011;56184;51.986;5.760;2022-08-19T03:56:34;5.10;;;4.60;;
69081;SDS011;56184;51.986;5.760;2022-08-19T03:59:00;5.70;;;5.05;;
69081;SDS011;56184;51.986;5.760;2022-08-19T04:01:28;5.82;;;4.90;;
69081;SDS011;56184;51.986;5.760;2022-08-19T04:03:57;5.90;;;5.32;;
69081;SDS011;56184;51.986;5.760;2022-08-19T04:06:25;5.72;;;5.22;;
69081;SDS011;56184;51.986;5.760;2022-08-19T04:08:52;5.85;;;5.25;;
69081;SDS011;56184;51.986;5.760;2022-08-19T04:11:20;5.85;;;5.25;;
69081;SDS011;56184;51.986;5.760;2022-08-19T04:13:48;6.75;;;5.72;;
69081;SDS011;56184;51.986;5.760;2022-08-19T04:16:16;6.32;;;5.50;;
69081;SDS011;56184;51.986;5.760;2022-08-19T04:18:46;5.93;;;5.35;;
69081;SDS011;56184;51.986;5.760;2022-08-19T04:21:20;5.70;;;5.20;;
69081;SDS011;56184;51.986;5.760;2022-08-19T04:23:48;6.38;;;5.25;;
69081;SDS011;56184;51.986;5.760;2022-08-19T04:26:18;7.38;;;5.30;;
69081;SDS011;56184;51.986;5.760;2022-08-19T04:28:47;7.65;;;5.50;;
69081;SDS011;56184;51.986;5.760;2022-08-19T04:31:17;6.07;;;5.47;;
69081;SDS011;56184;51.986;5.760;2022-08-19T04:33:44;6.50;;;5.35;;
69081;SDS011;56184;51.986;5.760;2022-08-19T04:36:17;6.45;;;5.68;;
69081;SDS011;56184;51.986;5.760;2022-08-19T04:39:23;6.30;;;5.68;;
69081;SDS011;56184;51.986;5.760;2022-08-19T04:42:14;8.00;;;6.10;;
69081;SDS011;56184;51.986;5.760;2022-08-19T04:45:00;10.00;;;5.65;;
69081;SDS011;56184;51.986;5.760;2022-08-19T04:47:27;6.15;;;5.40;;
69081;SDS011;56184;51.986;5.760;2022-08-19T04:49:54;5.63;;;5.13;;
69081;SDS011;56184;51.986;5.760;2022-08-19T04:52:20;9.73;;;5.30;;
69081;SDS011;56184;51.986;5.760;2022-08-19T04:54:45;5.63;;;5.13;;
69081;SDS011;56184;51.986;5.760;2022-08-19T04:57:11;6.05;;;5.10;;
69081;SDS011;56184;51.986;5.760;2022-08-19T04:59:37;5.07;;;4.57;;
69081;SDS011;56184;51.986;5.760;2022-08-19T05:02:04;5.80;;;4.95;;
69081;SDS011;56184;51.986;5.760;2022-08-19T05:04:31;5.00;;;4.20;;
69081;SDS011;56184;51.986;5.760;2022-08-19T05:06:57;4.85;;;4.45;;
69081;SDS011;56184;51.986;5.760;2022-08-19T05:09:35;8.95;;;4.50;;
69081;SDS011;56184;51.986;5.760;2022-08-19T05:12:02;5.13;;;4.53;;
69081;SDS011;56184;51.986;5.760;2022-08-19T05:14:28;6.95;;;3.97;;
69081;SDS011;56184;51.986;5.760;2022-08-19T05:17:01;4.85;;;4.43;;
69081;SDS011;56184;51.986;5.760;2022-08-19T05:19:28;7.05;;;4.50;;
69081;SDS011;56184;51.986;5.760;2022-08-19T05:22:12;7.50;;;4.40;;
69081;SDS011;56184;51.986;5.760;2022-08-19T05:24:57;4.22;;;3.92;;
69081;SDS011;56184;51.986;5.760;2022-08-19T05:27:23;7.22;;;4.25;;
69081;SDS011;56184;51.986;5.760;2022-08-19T05:29:49;4.65;;;4.05;;
69081;SDS011;56184;51.986;5.760;2022-08-19T05:32:16;4.78;;;3.80;;
69081;SDS011;56184;51.986;5.760;2022-08-19T05:34:41;8.30;;;4.32;;
69081;SDS011;56184;51.986;5.760;2022-08-19T05:37:07;6.60;;;4.00;;
69081;SDS011;56184;51.986;5.760;2022-08-19T05:39:33;4.75;;;4.25;;
69081;SDS011;56184;51.986;5.760;2022-08-19T05:42:02;4.85;;;4.22;;
69081;SDS011;56184;51.986;5.760;2022-08-19T05:44:33;4.55;;;4.15;;
69081;SDS011;56184;51.986;5.760;2022-08-19T05:47:01;6.32;;;3.90;;
69081;SDS011;56184;51.986;5.760;2022-08-19T05:49:29;6.80;;;4.18;;
69081;SDS011;56184;51.986;5.760;2022-08-19T05:51:56;9.10;;;4.50;;
69081;SDS011;56184;51.986;5.760;2022-08-19T05:54:31;7.05;;;4.63;;
69081;SDS011;56184;51.986;5.760;2022-08-19T05:57:27;8.77;;;5.15;;
69081;SDS011;56184;51.986;5.760;2022-08-19T05:59:53;6.25;;;5.10;;
69081;SDS011;56184;51.986;5.760;2022-08-19T06:02:19;8.27;;;4.97;;
69081;SDS011;56184;51.986;5.760;2022-08-19T06:04:45;7.68;;;5.82;;
69081;SDS011;56184;51.986;5.760;2022-08-19T06:07:26;8.90;;;6.63;;
69081;SDS011;56184;51.986;5.760;2022-08-19T06:09:53;15.30;;;8.65;;
69081;SDS011;56184;51.986;5.760;2022-08-19T06:12:20;18.27;;;10.85;;
69081;SDS011;56184;51.986;5.760;2022-08-19T06:14:55;19.92;;;12.95;;
69081;SDS011;56184;51.986;5.760;2022-08-19T06:17:21;19.48;;;13.38;;
69081;SDS011;56184;51.986;5.760;2022-08-19T06:19:49;17.58;;;12.57;;
69081;SDS011;56184;51.986;5.760;2022-08-19T06:22:15;29.38;;;19.00;;
69081;SDS011;56184;51.986;5.760;2022-08-19T06:24:41;32.35;;;19.70;;
69081;SDS011;56184;51.986;5.760;2022-08-19T06:27:07;30.92;;;20.33;;
69081;SDS011;56184;51.986;5.760;2022-08-19T06:29:32;35.95;;;20.85;;
69081;SDS011;56184;51.986;5.760;2022-08-19T06:31:59;37.33;;;22.38;;
69081;SDS011;56184;51.986;5.760;2022-08-19T06:34:26;41.47;;;23.05;;
69081;SDS011;56184;51.986;5.760;2022-08-19T06:36:54;47.35;;;24.55;;
69081;SDS011;56184;51.986;5.760;2022-08-19T06:39:25;46.78;;;25.35;;
69081;SDS011;56184;51.986;5.760;2022-08-19T06:41:54;55.27;;;28.50;;
69081;SDS011;56184;51.986;5.760;2022-08-19T06:44:22;49.78;;;28.25;;
69081;SDS011;56184;51.986;5.760;2022-08-19T06:46:50;60.83;;;30.67;;
69081;SDS011;56184;51.986;5.760;2022-08-19T06:49:33;58.10;;;29.75;;
69081;SDS011;56184;51.986;5.760;2022-08-19T06:51:59;57.65;;;29.98;;
69081;SDS011;56184;51.986;5.760;2022-08-19T06:54:28;56.88;;;29.48;;
69081;SDS011;56184;51.986;5.760;2022-08-19T06:56:57;64.00;;;31.23;;
69081;SDS011;56184;51.986;5.760;2022-08-19T06:59:26;71.65;;;32.97;;
69081;SDS011;56184;51.986;5.760;2022-08-19T07:01:57;72.22;;;34.90;;
69081;SDS011;56184;51.986;5.760;2022-08-19T07:04:26;86.38;;;38.58;;
69081;SDS011;56184;51.986;5.760;2022-08-19T07:07:00;75.50;;;36.33;;
69081;SDS011;56184;51.986;5.760;2022-08-19T07:09:31;82.95;;;39.65;;
69081;SDS011;56184;51.986;5.760;2022-08-19T07:11:57;83.53;;;38.70;;
69081;SDS011;56184;51.986;5.760;2022-08-19T07:14:24;93.22;;;40.15;;
69081;SDS011;56184;51.986;5.760;2022-08-19T07:16:51;78.25;;;39.38;;
69081;SDS011;56184;51.986;5.760;2022-08-19T07:19:20;69.80;;;38.20;;
69081;SDS011;56184;51.986;5.760;2022-08-19T07:21:48;70.10;;;36.65;;
69081;SDS011;56184;51.986;5.760;2022-08-19T07:24:17;67.82;;;37.67;;
69081;SDS011;56184;51.986;5.760;2022-08-19T07:29:15;67.20;;;37.50;;
69081;SDS011;56184;51.986;5.760;2022-08-19T07:31:41;68.32;;;38.65;;
69081;SDS011;56184;51.986;5.760;2022-08-19T07:34:08;67.07;;;38.20;;
69081;SDS011;56184;51.986;5.760;2022-08-19T07:36:36;70.20;;;40.13;;
69081;SDS011;56184;51.986;5.760;2022-08-19T07:39:05;71.57;;;40.72;;
69081;SDS011;56184;51.986;5.760;2022-08-19T07:41:35;72.10;;;38.40;;
69081;SDS011;56184;51.986;5.760;2022-08-19T07:44:01;71.40;;;41.08;;
69081;SDS011;56184;51.986;5.760;2022-08-19T07:46:30;70.55;;;39.60;;
69081;SDS011;56184;51.986;5.760;2022-08-19T07:48:57;80.88;;;42.60;;
69081;SDS011;56184;51.986;5.760;2022-08-19T07:51:23;79.50;;;43.25;;
69081;SDS011;56184;51.986;5.760;2022-08-19T07:53:49;70.47;;;40.00;;
69081;SDS011;56184;51.986;5.760;2022-08-19T07:56:16;66.22;;;39.60;;
69081;SDS011;56184;51.986;5.760;2022-08-19T07:58:44;70.80;;;40.08;;
69081;SDS011;56184;51.986;5.760;2022-08-19T08:01:13;74.03;;;41.50;;
69081;SDS011;56184;51.986;5.760;2022-08-19T08:03:41;72.47;;;40.95;;
69081;SDS011;56184;51.986;5.760;2022-08-19T08:06:26;62.20;;;36.63;;
69081;SDS011;56184;51.986;5.760;2022-08-19T08:09:10;67.07;;;37.45;;
69081;SDS011;56184;51.986;5.760;2022-08-19T08:11:40;64.88;;;37.90;;
69081;SDS011;56184;51.986;5.760;2022-08-19T08:14:15;64.30;;;35.40;;
69081;SDS011;56184;51.986;5.760;2022-08-19T08:16:43;65.32;;;36.70;;
69081;SDS011;56184;51.986;5.760;2022-08-19T08:19:11;64.35;;;36.50;;
69081;SDS011;56184;51.986;5.760;2022-08-19T08:21:40;61.63;;;37.10;;
69081;SDS011;56184;51.986;5.760;2022-08-19T08:24:06;64.85;;;37.30;;
69081;SDS011;56184;51.986;5.760;2022-08-19T08:26:32;63.10;;;36.05;;
69081;SDS011;56184;51.986;5.760;2022-08-19T08:29:10;63.10;;;36.13;;
69081;SDS011;56184;51.986;5.760;2022-08-19T08:31:37;63.28;;;37.08;;
69081;SDS011;56184;51.986;5.760;2022-08-19T08:34:07;56.22;;;33.15;;
69081;SDS011;56184;51.986;5.760;2022-08-19T08:36:36;58.13;;;33.75;;
69081;SDS011;56184;51.986;5.760;2022-08-19T08:39:06;61.60;;;34.40;;
69081;SDS011;56184;51.986;5.760;2022-08-19T08:44:28;61.72;;;33.63;;
69081;SDS011;56184;51.986;5.760;2022-08-19T08:47:04;56.15;;;32.42;;
69081;SDS011;56184;51.986;5.760;2022-08-19T08:52:26;52.33;;;30.52;;
69081;SDS011;56184;51.986;5.760;2022-08-19T08:54:55;53.13;;;31.17;;
69081;SDS011;56184;51.986;5.760;2022-08-19T08:57:35;53.55;;;31.60;;
69081;SDS011;56184;51.986;5.760;2022-08-19T09:00:30;55.42;;;31.98;;
69081;SDS011;56184;51.986;5.760;2022-08-19T09:03:01;55.15;;;32.10;;
69081;SDS011;56184;51.986;5.760;2022-08-19T09:05:43;51.00;;;29.63;;
69081;SDS011;56184;51.986;5.760;2022-08-19T09:10:52;48.08;;;27.70;;
69081;SDS011;56184;51.986;5.760;2022-08-19T09:13:26;43.47;;;25.67;;
69081;SDS011;56184;51.986;5.760;2022-08-19T09:16:02;35.83;;;23.13;;
69081;SDS011;56184;51.986;5.760;2022-08-19T09:18:42;37.63;;;22.17;;
69081;SDS011;56184;51.986;5.760;2022-08-19T09:21:11;40.38;;;23.23;;
69081;SDS011;56184;51.986;5.760;2022-08-19T09:23:37;39.88;;;22.50;;
69081;SDS011;56184;51.986;5.760;2022-08-19T09:26:06;37.72;;;22.88;;
69081;SDS011;56184;51.986;5.760;2022-08-19T09:28:33;37.10;;;24.35;;
69081;SDS011;56184;51.986;5.760;2022-08-19T09:30:59;37.47;;;23.17;;
69081;SDS011;56184;51.986;5.760;2022-08-19T09:33:25;37.90;;;23.40;;
69081;SDS011;56184;51.986;5.760;2022-08-19T09:36:00;41.17;;;22.15;;
69081;SDS011;56184;51.986;5.760;2022-08-19T09:38:33;32.47;;;19.95;;
69081;SDS011;56184;51.986;5.760;2022-08-19T09:41:04;31.83;;;20.27;;
69081;SDS011;56184;51.986;5.760;2022-08-19T09:43:31;33.90;;;20.55;;
69081;SDS011;56184;51.986;5.760;2022-08-19T09:45:58;33.35;;;19.58;;
69081;SDS011;56184;51.986;5.760;2022-08-19T09:48:25;35.70;;;21.58;;
69081;SDS011;56184;51.986;5.760;2022-08-19T09:50:51;34.22;;;20.42;;
69081;SDS011;56184;51.986;5.760;2022-08-19T09:53:16;37.30;;;21.73;;
69081;SDS011;56184;51.986;5.760;2022-08-19T09:55:43;37.13;;;21.05;;
69081;SDS011;56184;51.986;5.760;2022-08-19T09:58:08;36.30;;;21.02;;
69081;SDS011;56184;51.986;5.760;2022-08-19T10:00:36;35.22;;;21.40;;
69081;SDS011;56184;51.986;5.760;2022-08-19T10:03:03;33.80;;;19.63;;
69081;SDS011;56184;51.986;5.760;2022-08-19T10:05:28;33.03;;;19.40;;
69081;SDS011;56184;51.986;5.760;2022-08-19T10:08:12;30.25;;;18.02;;
69081;SDS011;56184;51.986;5.760;2022-08-19T10:10:38;37.15;;;19.75;;
69081;SDS011;56184;51.986;5.760;2022-08-19T10:13:04;34.22;;;18.35;;
69081;SDS011;56184;51.986;5.760;2022-08-19T10:15:30;33.50;;;19.60;;
69081;SDS011;56184;51.986;5.760;2022-08-19T10:17:56;30.05;;;16.90;;
69081;SDS011;56184;51.986;5.760;2022-08-19T10:20:24;30.67;;;17.80;;
69081;SDS011;56184;51.986;5.760;2022-08-19T10:22:50;34.75;;;18.25;;
69081;SDS011;56184;51.986;5.760;2022-08-19T10:25:15;35.97;;;19.20;;
69081;SDS011;56184;51.986;5.760;2022-08-19T10:27:42;35.15;;;19.05;;
69081;SDS011;56184;51.986;5.760;2022-08-19T10:30:09;36.53;;;18.50;;
69081;SDS011;56184;51.986;5.760;2022-08-19T10:32:35;38.05;;;19.73;;
69081;SDS011;56184;51.986;5.760;2022-08-19T10:35:02;31.00;;;19.08;;
69081;SDS011;56184;51.986;5.760;2022-08-19T10:37:32;31.83;;;18.00;;
69081;SDS011;56184;51.986;5.760;2022-08-19T10:39:59;30.13;;;16.83;;
69081;SDS011;56184;51.986;5.760;2022-08-19T10:42:24;27.33;;;16.83;;
69081;SDS011;56184;51.986;5.760;2022-08-19T10:44:50;33.58;;;18.58;;
69081;SDS011;56184;51.986;5.760;2022-08-19T10:47:16;36.28;;;19.95;;
69081;SDS011;56184;51.986;5.760;2022-08-19T10:49:41;29.67;;;17.35;;
69081;SDS011;56184;51.986;5.760;2022-08-19T10:52:25;33.83;;;16.95;;
69081;SDS011;56184;51.986;5.760;2022-08-19T10:55:01;27.83;;;15.80;;
69081;SDS011;56184;51.986;5.760;2022-08-19T10:57:47;27.70;;;16.20;;
69081;SDS011;56184;51.986;5.760;2022-08-19T11:00:12;26.48;;;15.32;;
69081;SDS011;56184;51.986;5.760;2022-08-19T11:02:38;23.85;;;14.57;;
69081;SDS011;56184;51.986;5.760;2022-08-19T11:05:04;26.05;;;14.60;;
69081;SDS011;56184;51.986;5.760;2022-08-19T11:07:31;24.40;;;13.88;;
69081;SDS011;56184;51.986;5.760;2022-08-19T11:09:58;24.30;;;14.90;;
69081;SDS011;56184;51.986;5.760;2022-08-19T11:12:24;25.88;;;14.38;;
69081;SDS011;56184;51.986;5.760;2022-08-19T11:14:50;29.30;;;16.02;;
69081;SDS011;56184;51.986;5.760;2022-08-19T11:17:15;22.15;;;15.13;;
69081;SDS011;56184;51.986;5.760;2022-08-19T11:19:41;26.27;;;12.68;;
69081;SDS011;56184;51.986;5.760;2022-08-19T11:22:08;19.25;;;12.07;;
69081;SDS011;56184;51.986;5.760;2022-08-19T11:24:34;22.67;;;13.88;;
69081;SDS011;56184;51.986;5.760;2022-08-19T11:27:02;23.50;;;13.88;;
69081;SDS011;56184;51.986;5.760;2022-08-19T11:29:31;22.20;;;13.90;;
69081;SDS011;56184;51.986;5.760;2022-08-19T11:31:59;20.40;;;12.35;;
69081;SDS011;56184;51.986;5.760;2022-08-19T11:34:26;23.45;;;12.52;;
69081;SDS011;56184;51.986;5.760;2022-08-19T11:36:53;22.50;;;12.43;;
69081;SDS011;56184;51.986;5.760;2022-08-19T11:39:23;24.08;;;10.88;;
69081;SDS011;56184;51.986;5.760;2022-08-19T11:41:50;16.80;;;10.50;;
69081;SDS011;56184;51.986;5.760;2022-08-19T11:44:16;16.65;;;11.30;;
69081;SDS011;56184;51.986;5.760;2022-08-19T11:46:42;18.67;;;12.25;;
69081;SDS011;56184;51.986;5.760;2022-08-19T11:49:13;20.63;;;11.45;;
69081;SDS011;56184;51.986;5.760;2022-08-19T11:51:40;21.63;;;12.68;;
69081;SDS011;56184;51.986;5.760;2022-08-19T11:54:08;19.88;;;12.57;;
69081;SDS011;56184;51.986;5.760;2022-08-19T11:56:34;22.92;;;15.05;;
69081;SDS011;56184;51.986;5.760;2022-08-19T11:59:02;20.70;;;13.32;;
69081;SDS011;56184;51.986;5.760;2022-08-19T12:01:28;28.05;;;15.50;;
69081;SDS011;56184;51.986;5.760;2022-08-19T12:03:55;25.20;;;15.45;;
69081;SDS011;56184;51.986;5.760;2022-08-19T12:06:22;21.92;;;15.40;;
69081;SDS011;56184;51.986;5.760;2022-08-19T12:08:58;19.17;;;12.90;;
69081;SDS011;56184;51.986;5.760;2022-08-19T12:11:25;21.55;;;13.50;;
69081;SDS011;56184;51.986;5.760;2022-08-19T12:13:52;23.85;;;13.60;;
69081;SDS011;56184;51.986;5.760;2022-08-19T12:16:21;18.60;;;12.70;;
69081;SDS011;56184;51.986;5.760;2022-08-19T12:18:51;22.95;;;13.73;;
69081;SDS011;56184;51.986;5.760;2022-08-19T12:21:19;23.25;;;14.82;;
69081;SDS011;56184;51.986;5.760;2022-08-19T12:23:47;16.15;;;9.70;;
69081;SDS011;56184;51.986;5.760;2022-08-19T12:26:14;19.27;;;13.77;;
69081;SDS011;56184;51.986;5.760;2022-08-19T12:28:40;14.65;;;10.73;;
69081;SDS011;56184;51.986;5.760;2022-08-19T12:31:06;22.27;;;13.35;;
69081;SDS011;56184;51.986;5.760;2022-08-19T12:33:32;23.98;;;12.82;;
69081;SDS011;56184;51.986;5.760;2022-08-19T12:36:02;20.33;;;11.35;;
69081;SDS011;56184;51.986;5.760;2022-08-19T12:38:30;21.60;;;13.50;;
69081;SDS011;56184;51.986;5.760;2022-08-19T12:40:57;24.63;;;15.45;;
69081;SDS011;56184;51.986;5.760;2022-08-19T12:43:23;26.58;;;15.63;;
69081;SDS011;56184;51.986;5.760;2022-08-19T12:45:49;24.55;;;15.23;;
69081;SDS011;56184;51.986;5.760;2022-08-19T12:48:14;18.83;;;12.07;;
69081;SDS011;56184;51.986;5.760;2022-08-19T12:50:43;18.58;;;10.20;;
69081;SDS011;56184;51.986;5.760;2022-08-19T12:53:10;24.73;;;15.52;;
69081;SDS011;56184;51.986;5.760;2022-08-19T12:55:37;12.20;;;8.35;;
69081;SDS011;56184;51.986;5.760;2022-08-19T12:58:02;13.85;;;9.82;;
69081;SDS011;56184;51.986;5.760;2022-08-19T13:00:28;17.20;;;10.65;;
69081;SDS011;56184;51.986;5.760;2022-08-19T13:02:55;21.23;;;13.25;;
69081;SDS011;56184;51.986;5.760;2022-08-19T13:05:22;19.90;;;12.77;;
69081;SDS011;56184;51.986;5.760;2022-08-19T13:07:49;16.25;;;9.35;;
69081;SDS011;56184;51.986;5.760;2022-08-19T13:10:18;15.85;;;11.65;;
69081;SDS011;56184;51.986;5.760;2022-08-19T13:12:45;19.17;;;10.82;;
69081;SDS011;56184;51.986;5.760;2022-08-19T13:15:13;15.68;;;10.30;;
69081;SDS011;56184;51.986;5.760;2022-08-19T13:17:39;14.98;;;9.45;;
69081;SDS011;56184;51.986;5.760;2022-08-19T13:20:09;23.55;;;14.48;;
69081;SDS011;56184;51.986;5.760;2022-08-19T13:22:36;15.57;;;10.73;;
69081;SDS011;56184;51.986;5.760;2022-08-19T13:25:06;15.55;;;11.20;;
69081;SDS011;56184;51.986;5.760;2022-08-19T13:27:32;14.57;;;10.57;;
69081;SDS011;56184;51.986;5.760;2022-08-19T13:29:58;18.65;;;10.38;;
69081;SDS011;56184;51.986;5.760;2022-08-19T13:32:43;13.60;;;8.48;;
69081;SDS011;56184;51.986;5.760;2022-08-19T13:35:27;20.52;;;9.40;;
69081;SDS011;56184;51.986;5.760;2022-08-19T13:37:53;16.30;;;10.27;;
69081;SDS011;56184;51.986;5.760;2022-08-19T13:40:20;20.85;;;13.20;;
69081;SDS011;56184;51.986;5.760;2022-08-19T13:42:49;15.57;;;9.70;;
69081;SDS011;56184;51.986;5.760;2022-08-19T13:45:17;17.58;;;9.80;;
69081;SDS011;56184;51.986;5.760;2022-08-19T13:47:50;21.23;;;16.13;;
69081;SDS011;56184;51.986;5.760;2022-08-19T13:50:17;22.92;;;14.73;;
69081;SDS011;56184;51.986;5.760;2022-08-19T13:52:44;23.20;;;14.75;;
69081;SDS011;56184;51.986;5.760;2022-08-19T13:55:11;21.83;;;14.15;;
69081;SDS011;56184;51.986;5.760;2022-08-19T13:57:37;25.98;;;17.02;;
69081;SDS011;56184;51.986;5.760;2022-08-19T14:00:07;20.05;;;11.73;;
69081;SDS011;56184;51.986;5.760;2022-08-19T14:02:38;23.20;;;12.90;;
69081;SDS011;56184;51.986;5.760;2022-08-19T14:05:05;17.75;;;11.68;;
69081;SDS011;56184;51.986;5.760;2022-08-19T14:07:33;19.67;;;14.38;;
69081;SDS011;56184;51.986;5.760;2022-08-19T14:09:59;26.85;;;17.25;;
69081;SDS011;56184;51.986;5.760;2022-08-19T14:12:24;24.50;;;15.90;;
69081;SDS011;56184;51.986;5.760;2022-08-19T14:14:50;25.23;;;16.38;;
69081;SDS011;56184;51.986;5.760;2022-08-19T14:17:16;23.73;;;13.88;;
69081;SDS011;56184;51.986;5.760;2022-08-19T14:19:42;24.73;;;14.20;;
69081;SDS011;56184;51.986;5.760;2022-08-19T14:22:08;21.67;;;15.50;;
69081;SDS011;56184;51.986;5.760;2022-08-19T14:24:34;15.93;;;11.60;;
69081;SDS011;56184;51.986;5.760;2022-08-19T14:27:01;16.85;;;10.50;;
69081;SDS011;56184;51.986;5.760;2022-08-19T14:29:28;14.95;;;8.50;;
69081;SDS011;56184;51.986;5.760;2022-08-19T14:31:54;9.93;;;7.75;;
69081;SDS011;56184;51.986;5.760;2022-08-19T14:34:24;13.00;;;7.78;;
69081;SDS011;56184;51.986;5.760;2022-08-19T14:36:50;9.55;;;6.45;;
69081;SDS011;56184;51.986;5.760;2022-08-19T14:39:16;9.50;;;6.35;;
69081;SDS011;56184;51.986;5.760;2022-08-19T14:41:43;12.50;;;6.88;;
69081;SDS011;56184;51.986;5.760;2022-08-19T14:44:10;10.40;;;5.72;;
69081;SDS011;56184;51.986;5.760;2022-08-19T14:46:37;11.32;;;4.78;;
69081;SDS011;56184;51.986;5.760;2022-08-19T14:49:04;9.27;;;4.63;;
69081;SDS011;56184;51.986;5.760;2022-08-19T14:51:30;6.35;;;4.85;;
69081;SDS011;56184;51.986;5.760;2022-08-19T14:53:56;8.93;;;6.10;;